sensor_id;sensor_type;location;lat;lon;timestamp;P1;durP1;ratioP1;P2;durP2;ratioP2
23517;SDS011;11935;50.878;4.392;2022-07-10T00:00:08;5.78;;;1.55;;
23517;SDS011;11935;50.878;4.392;2022-07-10T00:02:35;7.20;;;1.63;;
23517;SDS011;11935;50.878;4.392;2022-07-10T00:05:01;3.92;;;1.60;;
23517;SDS011;11935;50.878;4.392;2022-07-10T00:07:27;9.13;;;1.67;;
23517;SDS011;11935;50.878;4.392;2022-07-10T00:09:53;9.02;;;1.83;;
23517;SDS011;11935;50.878;4.392;2022-07-10T00:12:19;6.20;;;1.80;;
23517;SDS011;11935;50.878;4.392;2022-07-10T00:14:45;7.47;;;1.73;;
23517;SDS011;11935;50.878;4.392;2022-07-10T00:17:11;5.95;;;1.80;;
23517;SDS011;11935;50.878;4.392;2022-07-10T00:19:37;6.30;;;1.63;;
23517;SDS011;11935;50.878;4.392;2022-07-10T00:22:03;7.28;;;1.67;;
23517;SDS011;11935;50.878;4.392;2022-07-10T00:24:29;6.00;;;1.73;;
23517;SDS011;11935;50.878;4.392;2022-07-10T00:26:55;5.40;;;1.58;;
23517;SDS011;11935;50.878;4.392;2022-07-10T00:29:21;6.35;;;1.50;;
23517;SDS011;11935;50.878;4.392;2022-07-10T00:31:47;4.50;;;1.48;;
23517;SDS011;11935;50.878;4.392;2022-07-10T00:34:13;3.97;;;1.30;;
23517;SDS011;11935;50.878;4.392;2022-07-10T00:36:39;5.53;;;1.48;;
23517;SDS011;11935;50.878;4.392;2022-07-10T00:39:05;7.55;;;1.77;;
23517;SDS011;11935;50.878;4.392;2022-07-10T00:41:31;6.10;;;1.60;;
23517;SDS011;11935;50.878;4.392;2022-07-10T00:43:58;5.28;;;1.50;;
23517;SDS011;11935;50.878;4.392;2022-07-10T00:46:28;6.28;;;1.42;;
23517;SDS011;11935;50.878;4.392;2022-07-10T00:48:54;4.40;;;1.80;;
23517;SDS011;11935;50.878;4.392;2022-07-10T00:51:21;7.43;;;2.10;;
23517;SDS011;11935;50.878;4.392;2022-07-10T00:53:48;6.88;;;1.90;;
23517;SDS011;11935;50.878;4.392;2022-07-10T00:56:15;6.43;;;1.77;;
23517;SDS011;11935;50.878;4.392;2022-07-10T00:58:42;5.50;;;1.60;;
23517;SDS011;11935;50.878;4.392;2022-07-10T01:01:09;5.30;;;1.50;;
23517;SDS011;11935;50.878;4.392;2022-07-10T01:03:35;4.65;;;1.55;;
23517;SDS011;11935;50.878;4.392;2022-07-10T01:06:01;9.20;;;1.65;;
23517;SDS011;11935;50.878;4.392;2022-07-10T01:08:27;6.95;;;1.92;;
23517;SDS011;11935;50.878;4.392;2022-07-10T01:10:53;7.82;;;1.55;;
23517;SDS011;11935;50.878;4.392;2022-07-10T01:13:19;3.72;;;1.40;;
23517;SDS011;11935;50.878;4.392;2022-07-10T01:15:45;4.97;;;1.50;;
23517;SDS011;11935;50.878;4.392;2022-07-10T01:18:12;7.35;;;1.73;;
23517;SDS011;11935;50.878;4.392;2022-07-10T01:20:38;7.45;;;1.70;;
23517;SDS011;11935;50.878;4.392;2022-07-10T01:23:04;7.45;;;1.80;;
23517;SDS011;11935;50.878;4.392;2022-07-10T01:25:32;4.03;;;1.60;;
23517;SDS011;11935;50.878;4.392;2022-07-10T01:27:58;4.40;;;1.92;;
23517;SDS011;11935;50.878;4.392;2022-07-10T01:30:24;3.35;;;1.60;;
23517;SDS011;11935;50.878;4.392;2022-07-10T01:32:50;5.50;;;1.73;;
23517;SDS011;11935;50.878;4.392;2022-07-10T01:35:20;8.00;;;1.73;;
23517;SDS011;11935;50.878;4.392;2022-07-10T01:37:46;7.85;;;1.95;;
23517;SDS011;11935;50.878;4.392;2022-07-10T01:40:12;8.85;;;2.20;;
23517;SDS011;11935;50.878;4.392;2022-07-10T01:42:38;5.13;;;1.77;;
23517;SDS011;11935;50.878;4.392;2022-07-10T01:45:06;7.18;;;1.92;;
23517;SDS011;11935;50.878;4.392;2022-07-10T01:47:33;6.38;;;1.80;;
23517;SDS011;11935;50.878;4.392;2022-07-10T01:49:59;5.97;;;2.13;;
23517;SDS011;11935;50.878;4.392;2022-07-10T01:52:25;4.70;;;2.10;;
23517;SDS011;11935;50.878;4.392;2022-07-10T01:54:51;5.55;;;1.85;;
23517;SDS011;11935;50.878;4.392;2022-07-10T01:57:17;4.25;;;1.70;;
23517;SDS011;11935;50.878;4.392;2022-07-10T01:59:43;6.10;;;1.50;;
23517;SDS011;11935;50.878;4.392;2022-07-10T02:02:09;6.18;;;1.55;;
23517;SDS011;11935;50.878;4.392;2022-07-10T02:04:35;5.65;;;1.98;;
23517;SDS011;11935;50.878;4.392;2022-07-10T02:09:33;7.55;;;1.75;;
23517;SDS011;11935;50.878;4.392;2022-07-10T02:12:00;4.40;;;1.40;;
23517;SDS011;11935;50.878;4.392;2022-07-10T02:14:26;3.20;;;1.23;;
23517;SDS011;11935;50.878;4.392;2022-07-10T02:16:52;7.05;;;1.50;;
23517;SDS011;11935;50.878;4.392;2022-07-10T02:19:18;3.55;;;1.40;;
23517;SDS011;11935;50.878;4.392;2022-07-10T02:21:44;7.50;;;1.65;;
23517;SDS011;11935;50.878;4.392;2022-07-10T02:24:11;3.42;;;1.20;;
23517;SDS011;11935;50.878;4.392;2022-07-10T02:26:37;8.85;;;1.60;;
23517;SDS011;11935;50.878;4.392;2022-07-10T02:29:03;4.72;;;1.60;;
23517;SDS011;11935;50.878;4.392;2022-07-10T02:31:29;4.63;;;1.63;;
23517;SDS011;11935;50.878;4.392;2022-07-10T02:33:57;10.97;;;1.80;;
23517;SDS011;11935;50.878;4.392;2022-07-10T02:36:23;5.57;;;1.52;;
23517;SDS011;11935;50.878;4.392;2022-07-10T02:38:49;5.47;;;1.70;;
23517;SDS011;11935;50.878;4.392;2022-07-10T02:41:15;8.30;;;1.80;;
23517;SDS011;11935;50.878;4.392;2022-07-10T02:43:41;7.00;;;1.90;;
23517;SDS011;11935;50.878;4.392;2022-07-10T02:46:07;11.15;;;1.83;;
23517;SDS011;11935;50.878;4.392;2022-07-10T02:48:33;4.15;;;1.65;;
23517;SDS011;11935;50.878;4.392;2022-07-10T02:50:59;5.20;;;1.80;;
23517;SDS011;11935;50.878;4.392;2022-07-10T02:53:25;6.15;;;2.20;;
23517;SDS011;11935;50.878;4.392;2022-07-10T02:55:51;7.13;;;2.50;;
23517;SDS011;11935;50.878;4.392;2022-07-10T02:58:17;7.97;;;1.85;;
23517;SDS011;11935;50.878;4.392;2022-07-10T03:00:44;6.22;;;1.80;;
23517;SDS011;11935;50.878;4.392;2022-07-10T03:03:10;6.65;;;1.50;;
23517;SDS011;11935;50.878;4.392;2022-07-10T03:05:37;5.35;;;1.73;;
23517;SDS011;11935;50.878;4.392;2022-07-10T03:08:03;7.03;;;1.70;;
23517;SDS011;11935;50.878;4.392;2022-07-10T03:10:29;3.78;;;1.40;;
23517;SDS011;11935;50.878;4.392;2022-07-10T03:12:55;4.25;;;1.90;;
23517;SDS011;11935;50.878;4.392;2022-07-10T03:15:21;4.60;;;1.83;;
23517;SDS011;11935;50.878;4.392;2022-07-10T03:17:47;6.88;;;1.77;;
23517;SDS011;11935;50.878;4.392;2022-07-10T03:20:13;3.78;;;1.52;;
23517;SDS011;11935;50.878;4.392;2022-07-10T03:22:39;7.07;;;1.85;;
23517;SDS011;11935;50.878;4.392;2022-07-10T03:25:05;6.30;;;1.98;;
23517;SDS011;11935;50.878;4.392;2022-07-10T03:27:31;4.88;;;2.25;;
23517;SDS011;11935;50.878;4.392;2022-07-10T03:29:57;11.63;;;4.85;;
23517;SDS011;11935;50.878;4.392;2022-07-10T03:32:23;10.43;;;3.83;;
23517;SDS011;11935;50.878;4.392;2022-07-10T03:34:49;12.20;;;4.55;;
23517;SDS011;11935;50.878;4.392;2022-07-10T03:37:15;14.63;;;4.88;;
23517;SDS011;11935;50.878;4.392;2022-07-10T03:39:41;8.18;;;2.72;;
23517;SDS011;11935;50.878;4.392;2022-07-10T03:42:07;6.63;;;2.47;;
23517;SDS011;11935;50.878;4.392;2022-07-10T03:44:34;11.70;;;4.07;;
23517;SDS011;11935;50.878;4.392;2022-07-10T03:47:00;7.05;;;2.88;;
23517;SDS011;11935;50.878;4.392;2022-07-10T03:49:26;5.20;;;2.10;;
23517;SDS011;11935;50.878;4.392;2022-07-10T03:51:52;8.77;;;2.25;;
23517;SDS011;11935;50.878;4.392;2022-07-10T03:54:18;6.95;;;1.88;;
23517;SDS011;11935;50.878;4.392;2022-07-10T03:56:44;5.90;;;2.28;;
23517;SDS011;11935;50.878;4.392;2022-07-10T03:59:29;5.97;;;2.30;;
23517;SDS011;11935;50.878;4.392;2022-07-10T04:01:56;6.85;;;2.38;;
23517;SDS011;11935;50.878;4.392;2022-07-10T04:04:22;6.80;;;2.60;;
23517;SDS011;11935;50.878;4.392;2022-07-10T04:06:48;7.20;;;2.45;;
23517;SDS011;11935;50.878;4.392;2022-07-10T04:09:14;6.90;;;2.13;;
23517;SDS011;11935;50.878;4.392;2022-07-10T04:11:40;7.10;;;2.20;;
23517;SDS011;11935;50.878;4.392;2022-07-10T04:14:06;4.65;;;1.88;;
23517;SDS011;11935;50.878;4.392;2022-07-10T04:16:32;9.13;;;2.20;;
23517;SDS011;11935;50.878;4.392;2022-07-10T04:18:58;5.15;;;1.98;;
23517;SDS011;11935;50.878;4.392;2022-07-10T04:21:24;5.05;;;2.15;;
23517;SDS011;11935;50.878;4.392;2022-07-10T04:23:50;7.85;;;2.05;;
23517;SDS011;11935;50.878;4.392;2022-07-10T04:26:16;12.40;;;2.63;;
23517;SDS011;11935;50.878;4.392;2022-07-10T04:28:42;6.68;;;2.13;;
23517;SDS011;11935;50.878;4.392;2022-07-10T04:31:08;8.07;;;2.28;;
23517;SDS011;11935;50.878;4.392;2022-07-10T04:33:34;6.63;;;2.60;;
23517;SDS011;11935;50.878;4.392;2022-07-10T04:36:00;9.48;;;2.38;;
23517;SDS011;11935;50.878;4.392;2022-07-10T04:38:26;5.80;;;2.10;;
23517;SDS011;11935;50.878;4.392;2022-07-10T04:40:52;10.73;;;2.03;;
23517;SDS011;11935;50.878;4.392;2022-07-10T04:43:18;10.55;;;3.40;;
23517;SDS011;11935;50.878;4.392;2022-07-10T04:45:44;5.78;;;2.05;;
23517;SDS011;11935;50.878;4.392;2022-07-10T04:48:10;5.45;;;2.15;;
23517;SDS011;11935;50.878;4.392;2022-07-10T04:50:37;8.93;;;2.17;;
23517;SDS011;11935;50.878;4.392;2022-07-10T04:53:03;7.97;;;2.28;;
23517;SDS011;11935;50.878;4.392;2022-07-10T04:55:29;6.10;;;2.30;;
23517;SDS011;11935;50.878;4.392;2022-07-10T04:57:55;8.85;;;2.30;;
23517;SDS011;11935;50.878;4.392;2022-07-10T05:00:21;6.03;;;2.08;;
23517;SDS011;11935;50.878;4.392;2022-07-10T05:02:47;3.97;;;1.80;;
23517;SDS011;11935;50.878;4.392;2022-07-10T05:05:13;6.10;;;2.20;;
23517;SDS011;11935;50.878;4.392;2022-07-10T05:07:39;8.20;;;2.40;;
23517;SDS011;11935;50.878;4.392;2022-07-10T05:10:05;4.53;;;1.73;;
23517;SDS011;11935;50.878;4.392;2022-07-10T05:12:31;8.23;;;2.10;;
23517;SDS011;11935;50.878;4.392;2022-07-10T05:14:57;8.65;;;2.17;;
23517;SDS011;11935;50.878;4.392;2022-07-10T05:17:25;5.95;;;2.10;;
23517;SDS011;11935;50.878;4.392;2022-07-10T05:19:52;5.18;;;1.83;;
23517;SDS011;11935;50.878;4.392;2022-07-10T05:22:20;5.70;;;2.03;;
23517;SDS011;11935;50.878;4.392;2022-07-10T05:24:47;4.93;;;1.80;;
23517;SDS011;11935;50.878;4.392;2022-07-10T05:27:13;5.93;;;2.00;;
23517;SDS011;11935;50.878;4.392;2022-07-10T05:29:39;17.27;;;2.85;;
23517;SDS011;11935;50.878;4.392;2022-07-10T05:32:05;9.50;;;2.20;;
23517;SDS011;11935;50.878;4.392;2022-07-10T05:34:31;6.93;;;1.95;;
23517;SDS011;11935;50.878;4.392;2022-07-10T05:36:57;6.53;;;1.77;;
23517;SDS011;11935;50.878;4.392;2022-07-10T05:39:23;5.97;;;1.45;;
23517;SDS011;11935;50.878;4.392;2022-07-10T05:41:51;4.57;;;1.63;;
23517;SDS011;11935;50.878;4.392;2022-07-10T05:44:18;4.80;;;1.50;;
23517;SDS011;11935;50.878;4.392;2022-07-10T05:46:44;6.32;;;2.08;;
23517;SDS011;11935;50.878;4.392;2022-07-10T05:49:11;6.40;;;1.50;;
23517;SDS011;11935;50.878;4.392;2022-07-10T05:51:37;5.57;;;1.77;;
23517;SDS011;11935;50.878;4.392;2022-07-10T05:54:03;5.65;;;1.88;;
23517;SDS011;11935;50.878;4.392;2022-07-10T05:56:29;6.40;;;1.58;;
23517;SDS011;11935;50.878;4.392;2022-07-10T05:58:56;5.63;;;1.30;;
23517;SDS011;11935;50.878;4.392;2022-07-10T06:01:22;6.47;;;1.60;;
23517;SDS011;11935;50.878;4.392;2022-07-10T06:03:48;7.00;;;1.33;;
23517;SDS011;11935;50.878;4.392;2022-07-10T06:06:14;3.58;;;1.13;;
23517;SDS011;11935;50.878;4.392;2022-07-10T06:08:41;6.97;;;1.70;;
23517;SDS011;11935;50.878;4.392;2022-07-10T06:11:07;5.03;;;1.75;;
23517;SDS011;11935;50.878;4.392;2022-07-10T06:13:33;8.68;;;1.52;;
23517;SDS011;11935;50.878;4.392;2022-07-10T06:15:59;8.23;;;1.90;;
23517;SDS011;11935;50.878;4.392;2022-07-10T06:18:25;3.70;;;1.33;;
23517;SDS011;11935;50.878;4.392;2022-07-10T06:20:51;5.25;;;1.58;;
23517;SDS011;11935;50.878;4.392;2022-07-10T06:23:17;6.38;;;1.45;;
23517;SDS011;11935;50.878;4.392;2022-07-10T06:25:43;3.10;;;1.30;;
23517;SDS011;11935;50.878;4.392;2022-07-10T06:28:09;5.47;;;1.38;;
23517;SDS011;11935;50.878;4.392;2022-07-10T06:30:35;4.45;;;1.25;;
23517;SDS011;11935;50.878;4.392;2022-07-10T06:33:02;4.53;;;1.10;;
23517;SDS011;11935;50.878;4.392;2022-07-10T06:35:28;4.32;;;1.15;;
23517;SDS011;11935;50.878;4.392;2022-07-10T06:37:54;3.60;;;1.17;;
23517;SDS011;11935;50.878;4.392;2022-07-10T06:40:20;8.43;;;1.17;;
23517;SDS011;11935;50.878;4.392;2022-07-10T06:42:46;6.10;;;1.52;;
23517;SDS011;11935;50.878;4.392;2022-07-10T06:45:12;2.67;;;1.00;;
23517;SDS011;11935;50.878;4.392;2022-07-10T06:47:39;3.83;;;1.48;;
23517;SDS011;11935;50.878;4.392;2022-07-10T06:50:21;4.90;;;1.50;;
23517;SDS011;11935;50.878;4.392;2022-07-10T06:52:47;6.32;;;1.35;;
23517;SDS011;11935;50.878;4.392;2022-07-10T06:55:14;6.00;;;1.55;;
23517;SDS011;11935;50.878;4.392;2022-07-10T06:57:40;5.55;;;1.63;;
23517;SDS011;11935;50.878;4.392;2022-07-10T07:00:07;3.40;;;1.00;;
23517;SDS011;11935;50.878;4.392;2022-07-10T07:02:34;5.57;;;1.35;;
23517;SDS011;11935;50.878;4.392;2022-07-10T07:05:00;5.30;;;1.00;;
23517;SDS011;11935;50.878;4.392;2022-07-10T07:07:26;4.18;;;1.33;;
23517;SDS011;11935;50.878;4.392;2022-07-10T07:09:52;3.85;;;1.40;;
23517;SDS011;11935;50.878;4.392;2022-07-10T07:12:18;7.80;;;1.75;;
23517;SDS011;11935;50.878;4.392;2022-07-10T07:14:44;4.60;;;1.10;;
23517;SDS011;11935;50.878;4.392;2022-07-10T07:17:10;5.35;;;1.20;;
23517;SDS011;11935;50.878;4.392;2022-07-10T07:19:39;4.15;;;1.27;;
23517;SDS011;11935;50.878;4.392;2022-07-10T07:22:24;6.97;;;1.02;;
23517;SDS011;11935;50.878;4.392;2022-07-10T07:25:09;10.85;;;2.35;;
23517;SDS011;11935;50.878;4.392;2022-07-10T07:27:36;3.78;;;1.08;;
23517;SDS011;11935;50.878;4.392;2022-07-10T07:30:06;4.95;;;0.93;;
23517;SDS011;11935;50.878;4.392;2022-07-10T07:32:35;5.72;;;1.27;;
23517;SDS011;11935;50.878;4.392;2022-07-10T07:35:02;2.35;;;1.23;;
23517;SDS011;11935;50.878;4.392;2022-07-10T07:40:11;7.60;;;1.30;;
23517;SDS011;11935;50.878;4.392;2022-07-10T07:42:37;6.20;;;1.52;;
23517;SDS011;11935;50.878;4.392;2022-07-10T07:45:04;4.13;;;1.23;;
23517;SDS011;11935;50.878;4.392;2022-07-10T07:47:30;5.30;;;2.97;;
23517;SDS011;11935;50.878;4.392;2022-07-10T07:49:57;4.25;;;1.10;;
23517;SDS011;11935;50.878;4.392;2022-07-10T07:52:23;6.60;;;1.40;;
23517;SDS011;11935;50.878;4.392;2022-07-10T07:54:49;4.22;;;1.10;;
23517;SDS011;11935;50.878;4.392;2022-07-10T07:57:16;5.53;;;1.20;;
23517;SDS011;11935;50.878;4.392;2022-07-10T07:59:42;7.55;;;1.40;;
23517;SDS011;11935;50.878;4.392;2022-07-10T08:02:08;3.90;;;1.70;;
23517;SDS011;11935;50.878;4.392;2022-07-10T08:04:34;6.05;;;1.80;;
23517;SDS011;11935;50.878;4.392;2022-07-10T08:07:00;4.82;;;1.38;;
23517;SDS011;11935;50.878;4.392;2022-07-10T08:09:27;6.63;;;1.67;;
23517;SDS011;11935;50.878;4.392;2022-07-10T08:11:53;2.88;;;1.30;;
23517;SDS011;11935;50.878;4.392;2022-07-10T08:14:19;7.20;;;1.50;;
23517;SDS011;11935;50.878;4.392;2022-07-10T08:16:45;5.45;;;1.55;;
23517;SDS011;11935;50.878;4.392;2022-07-10T08:19:11;6.60;;;1.50;;
23517;SDS011;11935;50.878;4.392;2022-07-10T08:21:37;7.43;;;1.52;;
23517;SDS011;11935;50.878;4.392;2022-07-10T08:24:03;7.20;;;1.75;;
23517;SDS011;11935;50.878;4.392;2022-07-10T08:26:30;4.47;;;1.25;;
23517;SDS011;11935;50.878;4.392;2022-07-10T08:28:56;4.30;;;1.30;;
23517;SDS011;11935;50.878;4.392;2022-07-10T08:31:22;4.63;;;1.55;;
23517;SDS011;11935;50.878;4.392;2022-07-10T08:33:48;4.72;;;1.50;;
23517;SDS011;11935;50.878;4.392;2022-07-10T08:36:16;4.30;;;1.33;;
23517;SDS011;11935;50.878;4.392;2022-07-10T08:38:42;2.47;;;0.90;;
23517;SDS011;11935;50.878;4.392;2022-07-10T08:41:08;5.88;;;1.58;;
23517;SDS011;11935;50.878;4.392;2022-07-10T08:43:36;4.07;;;1.27;;
23517;SDS011;11935;50.878;4.392;2022-07-10T08:46:02;4.78;;;1.52;;
23517;SDS011;11935;50.878;4.392;2022-07-10T08:48:30;7.93;;;1.50;;
23517;SDS011;11935;50.878;4.392;2022-07-10T08:50:59;6.43;;;1.50;;
23517;SDS011;11935;50.878;4.392;2022-07-10T08:53:30;6.40;;;1.17;;
23517;SDS011;11935;50.878;4.392;2022-07-10T08:55:59;3.95;;;1.30;;
23517;SDS011;11935;50.878;4.392;2022-07-10T08:58:26;6.22;;;1.80;;
23517;SDS011;11935;50.878;4.392;2022-07-10T09:00:52;4.45;;;1.58;;
23517;SDS011;11935;50.878;4.392;2022-07-10T09:03:22;4.25;;;1.58;;
23517;SDS011;11935;50.878;4.392;2022-07-10T09:05:48;4.63;;;1.42;;
23517;SDS011;11935;50.878;4.392;2022-07-10T09:10:42;8.52;;;1.50;;
23517;SDS011;11935;50.878;4.392;2022-07-10T09:13:08;8.32;;;1.50;;
23517;SDS011;11935;50.878;4.392;2022-07-10T09:15:34;3.25;;;1.40;;
23517;SDS011;11935;50.878;4.392;2022-07-10T09:18:01;3.88;;;1.52;;
23517;SDS011;11935;50.878;4.392;2022-07-10T09:22:55;3.83;;;1.50;;
23517;SDS011;11935;50.878;4.392;2022-07-10T09:25:23;5.55;;;1.60;;
23517;SDS011;11935;50.878;4.392;2022-07-10T09:27:50;3.90;;;1.30;;
23517;SDS011;11935;50.878;4.392;2022-07-10T09:30:30;5.68;;;1.27;;
23517;SDS011;11935;50.878;4.392;2022-07-10T09:33:14;7.22;;;1.52;;
23517;SDS011;11935;50.878;4.392;2022-07-10T09:36:09;8.57;;;1.70;;
23517;SDS011;11935;50.878;4.392;2022-07-10T09:41:13;7.72;;;1.90;;
23517;SDS011;11935;50.878;4.392;2022-07-10T09:46:39;5.07;;;1.70;;
23517;SDS011;11935;50.878;4.392;2022-07-10T09:51:42;3.03;;;1.50;;
23517;SDS011;11935;50.878;4.392;2022-07-10T09:54:08;6.18;;;1.58;;
23517;SDS011;11935;50.878;4.392;2022-07-10T09:56:42;6.50;;;1.60;;
23517;SDS011;11935;50.878;4.392;2022-07-10T09:59:13;4.57;;;1.80;;
23517;SDS011;11935;50.878;4.392;2022-07-10T10:01:43;5.15;;;2.10;;
23517;SDS011;11935;50.878;4.392;2022-07-10T10:04:10;6.20;;;1.55;;
23517;SDS011;11935;50.878;4.392;2022-07-10T10:06:36;4.07;;;1.77;;
23517;SDS011;11935;50.878;4.392;2022-07-10T10:09:09;5.25;;;1.60;;
23517;SDS011;11935;50.878;4.392;2022-07-10T10:11:36;3.70;;;1.75;;
23517;SDS011;11935;50.878;4.392;2022-07-10T10:14:03;6.13;;;1.83;;
23517;SDS011;11935;50.878;4.392;2022-07-10T10:16:32;3.58;;;1.55;;
23517;SDS011;11935;50.878;4.392;2022-07-10T10:18:59;5.72;;;1.48;;
23517;SDS011;11935;50.878;4.392;2022-07-10T10:21:43;5.85;;;2.20;;
23517;SDS011;11935;50.878;4.392;2022-07-10T10:24:10;3.83;;;1.35;;
23517;SDS011;11935;50.878;4.392;2022-07-10T10:26:36;4.35;;;1.60;;
23517;SDS011;11935;50.878;4.392;2022-07-10T10:29:03;3.85;;;1.67;;
23517;SDS011;11935;50.878;4.392;2022-07-10T10:31:30;7.20;;;1.77;;
23517;SDS011;11935;50.878;4.392;2022-07-10T10:33:57;4.47;;;1.83;;
23517;SDS011;11935;50.878;4.392;2022-07-10T10:39:13;3.20;;;1.38;;
23517;SDS011;11935;50.878;4.392;2022-07-10T10:41:44;4.57;;;1.73;;
23517;SDS011;11935;50.878;4.392;2022-07-10T10:49:21;3.90;;;1.98;;
23517;SDS011;11935;50.878;4.392;2022-07-10T10:54:21;4.13;;;2.00;;
23517;SDS011;11935;50.878;4.392;2022-07-10T11:02:35;4.00;;;1.50;;
23517;SDS011;11935;50.878;4.392;2022-07-10T11:07:54;5.43;;;1.55;;
23517;SDS011;11935;50.878;4.392;2022-07-10T11:10:30;3.00;;;1.40;;
23517;SDS011;11935;50.878;4.392;2022-07-10T11:13:07;4.63;;;1.65;;
23517;SDS011;11935;50.878;4.392;2022-07-10T11:15:37;3.90;;;1.70;;
23517;SDS011;11935;50.878;4.392;2022-07-10T11:18:11;5.22;;;1.50;;
23517;SDS011;11935;50.878;4.392;2022-07-10T11:20:38;6.05;;;1.48;;
23517;SDS011;11935;50.878;4.392;2022-07-10T11:23:08;3.33;;;1.27;;
23517;SDS011;11935;50.878;4.392;2022-07-10T11:25:42;4.60;;;1.45;;
23517;SDS011;11935;50.878;4.392;2022-07-10T11:28:12;7.28;;;1.50;;
23517;SDS011;11935;50.878;4.392;2022-07-10T11:30:45;4.65;;;1.40;;
23517;SDS011;11935;50.878;4.392;2022-07-10T11:33:12;4.28;;;1.45;;
23517;SDS011;11935;50.878;4.392;2022-07-10T11:35:38;4.15;;;1.25;;
23517;SDS011;11935;50.878;4.392;2022-07-10T11:38:07;3.80;;;1.25;;
23517;SDS011;11935;50.878;4.392;2022-07-10T11:40:37;4.78;;;1.60;;
23517;SDS011;11935;50.878;4.392;2022-07-10T11:43:03;4.80;;;1.60;;
23517;SDS011;11935;50.878;4.392;2022-07-10T11:45:32;3.20;;;1.30;;
23517;SDS011;11935;50.878;4.392;2022-07-10T11:48:01;5.80;;;1.65;;
23517;SDS011;11935;50.878;4.392;2022-07-10T11:50:28;3.17;;;1.20;;
23517;SDS011;11935;50.878;4.392;2022-07-10T11:53:00;5.55;;;1.35;;
23517;SDS011;11935;50.878;4.392;2022-07-10T11:55:26;3.70;;;1.40;;
23517;SDS011;11935;50.878;4.392;2022-07-10T11:57:54;4.85;;;1.55;;
23517;SDS011;11935;50.878;4.392;2022-07-10T12:00:20;4.72;;;1.63;;
23517;SDS011;11935;50.878;4.392;2022-07-10T12:02:48;3.65;;;1.60;;
23517;SDS011;11935;50.878;4.392;2022-07-10T12:08:16;3.13;;;1.30;;
23517;SDS011;11935;50.878;4.392;2022-07-10T12:10:42;4.63;;;1.20;;
23517;SDS011;11935;50.878;4.392;2022-07-10T12:13:12;5.13;;;1.45;;
23517;SDS011;11935;50.878;4.392;2022-07-10T12:15:39;2.85;;;1.33;;
23517;SDS011;11935;50.878;4.392;2022-07-10T12:18:15;4.88;;;1.23;;
23517;SDS011;11935;50.878;4.392;2022-07-10T12:20:49;4.97;;;1.55;;
23517;SDS011;11935;50.878;4.392;2022-07-10T12:23:17;2.22;;;1.20;;
23517;SDS011;11935;50.878;4.392;2022-07-10T12:25:44;3.00;;;1.20;;
23517;SDS011;11935;50.878;4.392;2022-07-10T12:28:11;4.22;;;1.10;;
23517;SDS011;11935;50.878;4.392;2022-07-10T12:30:41;3.05;;;0.90;;
23517;SDS011;11935;50.878;4.392;2022-07-10T12:33:18;3.20;;;1.10;;
23517;SDS011;11935;50.878;4.392;2022-07-10T12:38:20;3.67;;;1.30;;
23517;SDS011;11935;50.878;4.392;2022-07-10T12:40:47;2.30;;;0.82;;
23517;SDS011;11935;50.878;4.392;2022-07-10T12:43:23;4.50;;;2.30;;
23517;SDS011;11935;50.878;4.392;2022-07-10T12:48:41;2.53;;;1.10;;
23517;SDS011;11935;50.878;4.392;2022-07-10T12:51:21;4.68;;;1.15;;
23517;SDS011;11935;50.878;4.392;2022-07-10T12:53:47;2.40;;;0.90;;
23517;SDS011;11935;50.878;4.392;2022-07-10T12:59:12;3.50;;;0.85;;
23517;SDS011;11935;50.878;4.392;2022-07-10T13:01:43;4.60;;;0.80;;
23517;SDS011;11935;50.878;4.392;2022-07-10T13:04:09;3.22;;;0.70;;
23517;SDS011;11935;50.878;4.392;2022-07-10T13:06:36;3.35;;;0.90;;
23517;SDS011;11935;50.878;4.392;2022-07-10T13:09:17;2.88;;;0.70;;
23517;SDS011;11935;50.878;4.392;2022-07-10T13:11:43;3.35;;;1.17;;
23517;SDS011;11935;50.878;4.392;2022-07-10T13:14:09;3.00;;;1.00;;
23517;SDS011;11935;50.878;4.392;2022-07-10T13:16:35;4.10;;;0.80;;
23517;SDS011;11935;50.878;4.392;2022-07-10T13:19:01;2.58;;;0.90;;
23517;SDS011;11935;50.878;4.392;2022-07-10T13:21:27;3.10;;;1.05;;
23517;SDS011;11935;50.878;4.392;2022-07-10T13:23:53;3.10;;;1.52;;
23517;SDS011;11935;50.878;4.392;2022-07-10T13:26:20;4.00;;;1.67;;
23517;SDS011;11935;50.878;4.392;2022-07-10T13:28:46;4.03;;;0.90;;
23517;SDS011;11935;50.878;4.392;2022-07-10T13:31:12;4.05;;;1.10;;
23517;SDS011;11935;50.878;4.392;2022-07-10T13:33:38;3.20;;;1.20;;
23517;SDS011;11935;50.878;4.392;2022-07-10T13:36:04;2.92;;;0.90;;
23517;SDS011;11935;50.878;4.392;2022-07-10T13:38:30;3.22;;;0.90;;
23517;SDS011;11935;50.878;4.392;2022-07-10T13:40:57;1.92;;;0.90;;
23517;SDS011;11935;50.878;4.392;2022-07-10T13:43:23;2.72;;;0.90;;
23517;SDS011;11935;50.878;4.392;2022-07-10T13:45:56;2.15;;;0.80;;
23517;SDS011;11935;50.878;4.392;2022-07-10T13:48:22;2.25;;;0.80;;
23517;SDS011;11935;50.878;4.392;2022-07-10T13:50:48;3.80;;;0.90;;
23517;SDS011;11935;50.878;4.392;2022-07-10T13:53:15;3.40;;;1.02;;
23517;SDS011;11935;50.878;4.392;2022-07-10T13:55:41;6.85;;;1.38;;
23517;SDS011;11935;50.878;4.392;2022-07-10T13:58:08;2.53;;;0.93;;
23517;SDS011;11935;50.878;4.392;2022-07-10T14:00:34;3.73;;;1.23;;
23517;SDS011;11935;50.878;4.392;2022-07-10T14:03:01;2.30;;;0.95;;
23517;SDS011;11935;50.878;4.392;2022-07-10T14:05:27;3.40;;;0.88;;
23517;SDS011;11935;50.878;4.392;2022-07-10T14:07:53;4.15;;;0.90;;
23517;SDS011;11935;50.878;4.392;2022-07-10T14:10:19;2.65;;;1.70;;
23517;SDS011;11935;50.878;4.392;2022-07-10T14:12:45;3.38;;;1.02;;
23517;SDS011;11935;50.878;4.392;2022-07-10T14:15:12;4.38;;;2.28;;
23517;SDS011;11935;50.878;4.392;2022-07-10T14:17:38;4.88;;;1.30;;
23517;SDS011;11935;50.878;4.392;2022-07-10T14:20:04;3.17;;;0.93;;
23517;SDS011;11935;50.878;4.392;2022-07-10T14:22:30;4.25;;;1.58;;
23517;SDS011;11935;50.878;4.392;2022-07-10T14:24:57;3.42;;;1.30;;
23517;SDS011;11935;50.878;4.392;2022-07-10T14:27:24;4.57;;;1.10;;
23517;SDS011;11935;50.878;4.392;2022-07-10T14:29:50;4.38;;;1.90;;
23517;SDS011;11935;50.878;4.392;2022-07-10T14:32:16;2.60;;;0.80;;
23517;SDS011;11935;50.878;4.392;2022-07-10T14:34:42;1.73;;;0.80;;
23517;SDS011;11935;50.878;4.392;2022-07-10T14:37:08;1.95;;;0.70;;
23517;SDS011;11935;50.878;4.392;2022-07-10T14:39:34;3.53;;;0.77;;
23517;SDS011;11935;50.878;4.392;2022-07-10T14:42:01;2.45;;;0.82;;
23517;SDS011;11935;50.878;4.392;2022-07-10T14:44:27;3.58;;;0.90;;
23517;SDS011;11935;50.878;4.392;2022-07-10T14:46:53;3.45;;;1.55;;
23517;SDS011;11935;50.878;4.392;2022-07-10T14:49:20;2.65;;;0.70;;
23517;SDS011;11935;50.878;4.392;2022-07-10T14:51:46;2.20;;;0.70;;
23517;SDS011;11935;50.878;4.392;2022-07-10T14:54:12;3.78;;;0.70;;
23517;SDS011;11935;50.878;4.392;2022-07-10T14:56:38;2.38;;;1.00;;
23517;SDS011;11935;50.878;4.392;2022-07-10T14:59:04;4.50;;;1.70;;
23517;SDS011;11935;50.878;4.392;2022-07-10T15:01:30;3.60;;;1.70;;
23517;SDS011;11935;50.878;4.392;2022-07-10T15:03:59;2.15;;;0.70;;
23517;SDS011;11935;50.878;4.392;2022-07-10T15:06:25;2.55;;;0.70;;
23517;SDS011;11935;50.878;4.392;2022-07-10T15:08:51;2.67;;;0.80;;
23517;SDS011;11935;50.878;4.392;2022-07-10T15:11:18;2.78;;;0.90;;
23517;SDS011;11935;50.878;4.392;2022-07-10T15:13:48;3.53;;;0.80;;
23517;SDS011;11935;50.878;4.392;2022-07-10T15:16:15;3.25;;;1.10;;
23517;SDS011;11935;50.878;4.392;2022-07-10T15:18:41;3.67;;;1.00;;
23517;SDS011;11935;50.878;4.392;2022-07-10T15:21:08;6.07;;;1.30;;
23517;SDS011;11935;50.878;4.392;2022-07-10T15:23:34;3.03;;;0.90;;
23517;SDS011;11935;50.878;4.392;2022-07-10T15:26:00;1.90;;;0.63;;
23517;SDS011;11935;50.878;4.392;2022-07-10T15:28:26;4.15;;;3.15;;
23517;SDS011;11935;50.878;4.392;2022-07-10T15:30:52;3.67;;;1.90;;
23517;SDS011;11935;50.878;4.392;2022-07-10T15:33:18;4.07;;;1.38;;
23517;SDS011;11935;50.878;4.392;2022-07-10T15:35:44;3.90;;;1.33;;